sensor_id;sensor_type;location;lat;lon;timestamp;pressure;altitude;pressure_sealevel;temperature;humidity
46614;BME280;32338;50.430;6.806;2022-11-22T00:01:07;65770.09;;;3.22;100.00
46614;BME280;32338;50.430;6.806;2022-11-22T00:03:35;65779.41;;;3.28;100.00
46614;BME280;32338;50.430;6.806;2022-11-22T00:06:08;65776.59;;;3.26;100.00
46614;BME280;32338;50.430;6.806;2022-11-22T00:08:51;65767.50;;;3.22;100.00
46614;BME280;32338;50.430;6.806;2022-11-22T00:11:33;65775.91;;;3.30;100.00
46614;BME280;32338;50.430;6.806;2022-11-22T00:14:01;65771.97;;;3.26;100.00
46614;BME280;32338;50.430;6.806;2022-11-22T00:16:33;65771.06;;;3.28;100.00
46614;BME280;32338;50.430;6.806;2022-11-22T00:19:09;65774.56;;;3.26;100.00
46614;BME280;32338;50.430;6.806;2022-11-22T00:21:42;65773.09;;;3.27;100.00
46614;BME280;32338;50.430;6.806;2022-11-22T00:24:17;65774.44;;;3.31;100.00
46614;BME280;32338;50.430;6.806;2022-11-22T00:26:49;65784.84;;;3.38;100.00
46614;BME280;32338;50.430;6.806;2022-11-22T00:29:25;65778.69;;;3.32;100.00
46614;BME280;32338;50.430;6.806;2022-11-22T00:31:58;65785.97;;;3.39;100.00
46614;BME280;32338;50.430;6.806;2022-11-22T00:34:48;65790.03;;;3.38;100.00
46614;BME280;32338;50.430;6.806;2022-11-22T00:37:18;65783.16;;;3.36;100.00
46614;BME280;32338;50.430;6.806;2022-11-22T00:39:46;65784.50;;;3.40;100.00
46614;BME280;32338;50.430;6.806;2022-11-22T00:42:31;65788.75;;;3.41;100.00
46614;BME280;32338;50.430;6.806;2022-11-22T00:45:04;65787.09;;;3.40;100.00
46614;BME280;32338;50.430;6.806;2022-11-22T00:47:39;65789.13;;;3.39;100.00
46614;BME280;32338;50.430;6.806;2022-11-22T00:50:09;65790.81;;;3.41;100.00
46614;BME280;32338;50.430;6.806;2022-11-22T00:52:40;65785.97;;;3.39;100.00
46614;BME280;32338;50.430;6.806;2022-11-22T00:55:21;65784.50;;;3.40;100.00
46614;BME280;32338;50.430;6.806;2022-11-22T00:57:49;65798.44;;;3.46;100.00
46614;BME280;32338;50.430;6.806;2022-11-22T01:00:29;65793.94;;;3.41;100.00
46614;BME280;32338;50.430;6.806;2022-11-22T01:03:06;65792.13;;;3.45;100.00
46614;BME280;32338;50.430;6.806;2022-11-22T01:05:41;65800.13;;;3.47;100.00
46614;BME280;32338;50.430;6.806;2022-11-22T01:08:10;65805.22;;;3.59;100.00
46614;BME280;32338;50.430;6.806;2022-11-22T01:10:42;65798.47;;;3.53;100.00
46614;BME280;32338;50.430;6.806;2022-11-22T01:13:13;65804.25;;;3.53;100.00
46614;BME280;32338;50.430;6.806;2022-11-22T01:15:42;65803.88;;;3.55;100.00
46614;BME280;32338;50.430;6.806;2022-11-22T01:18:12;65793.66;;;3.51;100.00
46614;BME280;32338;50.430;6.806;2022-11-22T01:20:43;65809.06;;;3.55;100.00
46614;BME280;32338;50.430;6.806;2022-11-22T01:23:18;65798.69;;;3.55;100.00
46614;BME280;32338;50.430;6.806;2022-11-22T01:25:47;65803.31;;;3.55;100.00
46614;BME280;32338;50.430;6.806;2022-11-22T01:28:26;65798.44;;;3.46;100.00
46614;BME280;32338;50.430;6.806;2022-11-22T01:30:59;65796.75;;;3.44;100.00
46614;BME280;32338;50.430;6.806;2022-11-22T01:33:42;65786.53;;;3.39;100.00
46614;BME280;32338;50.430;6.806;2022-11-22T01:36:16;65778.13;;;3.32;100.00
46614;BME280;32338;50.430;6.806;2022-11-22T01:38:45;65772.91;;;3.24;100.00
46614;BME280;32338;50.430;6.806;2022-11-22T01:41:15;65765.25;;;3.20;100.00
46614;BME280;32338;50.430;6.806;2022-11-22T01:43:52;65756.28;;;3.12;100.00
46614;BME280;32338;50.430;6.806;2022-11-22T01:46:36;65750.91;;;3.09;100.00
46614;BME280;32338;50.430;6.806;2022-11-22T01:49:09;65757.41;;;3.13;100.00
46614;BME280;32338;50.430;6.806;2022-11-22T01:51:45;65752.03;;;3.10;100.00
46614;BME280;32338;50.430;6.806;2022-11-22T01:54:18;65756.88;;;3.12;100.00
46614;BME280;32338;50.430;6.806;2022-11-22T01:57:03;65760.22;;;3.15;100.00
46614;BME280;32338;50.430;6.806;2022-11-22T01:59:42;65752.41;;;3.08;100.00
46614;BME280;32338;50.430;6.806;2022-11-22T02:02:11;65756.09;;;3.09;100.00
46614;BME280;32338;50.430;6.806;2022-11-22T02:04:55;65760.16;;;3.08;100.00
46614;BME280;32338;50.430;6.806;2022-11-22T02:07:30;65763.00;;;3.18;100.00
46614;BME280;32338;50.430;6.806;2022-11-22T02:10:01;65749.94;;;3.03;100.00
46614;BME280;32338;50.430;6.806;2022-11-22T02:12:29;65742.09;;;2.96;100.00
46614;BME280;32338;50.430;6.806;2022-11-22T02:14:58;65745.69;;;3.02;100.00
46614;BME280;32338;50.430;6.806;2022-11-22T02:17:31;65747.91;;;3.04;100.00
46614;BME280;32338;50.430;6.806;2022-11-22T02:20:06;65749.22;;;3.07;100.00
46614;BME280;32338;50.430;6.806;2022-11-22T02:22:42;65761.47;;;3.12;100.00
46614;BME280;32338;50.430;6.806;2022-11-22T02:25:18;65756.28;;;3.12;100.00
46614;BME280;32338;50.430;6.806;2022-11-22T02:27:52;65764.28;;;3.14;100.00
46614;BME280;32338;50.430;6.806;2022-11-22T02:30:24;65759.66;;;3.15;100.00
46614;BME280;32338;50.430;6.806;2022-11-22T02:32:56;65756.28;;;3.12;100.00
46614;BME280;32338;50.430;6.806;2022-11-22T02:35:24;65758.00;;;3.13;100.00
46614;BME280;32338;50.430;6.806;2022-11-22T02:37:56;65762.47;;;3.17;100.00
46614;BME280;32338;50.430;6.806;2022-11-22T02:40:25;65765.06;;;3.17;100.00
46614;BME280;32338;50.430;6.806;2022-11-22T02:42:57;65766.03;;;3.23;100.00
46614;BME280;32338;50.430;6.806;2022-11-22T02:45:28;65769.19;;;3.23;100.00
46614;BME280;32338;50.430;6.806;2022-11-22T02:48:05;65766.25;;;3.26;100.00
46614;BME280;32338;50.430;6.806;2022-11-22T02:50:33;65773.44;;;3.25;100.00
46614;BME280;32338;50.430;6.806;2022-11-22T02:53:03;65765.81;;;3.20;100.00
46614;BME280;32338;50.430;6.806;2022-11-22T02:55:34;65771.56;;;3.21;100.00
46614;BME280;32338;50.430;6.806;2022-11-22T02:58:06;65767.66;;;3.17;100.00
46614;BME280;32338;50.430;6.806;2022-11-22T03:00:33;65762.13;;;3.19;100.00
46614;BME280;32338;50.430;6.806;2022-11-22T03:03:04;65758.00;;;3.13;100.00
46614;BME280;32338;50.430;6.806;2022-11-22T03:05:35;65761.34;;;3.16;100.00
46614;BME280;32338;50.430;6.806;2022-11-22T03:08:10;65762.47;;;3.17;100.00
46614;BME280;32338;50.430;6.806;2022-11-22T03:10:40;65758.88;;;3.12;100.00
46614;BME280;32338;50.430;6.806;2022-11-22T03:13:12;65763.38;;;3.16;100.00
46614;BME280;32338;50.430;6.806;2022-11-22T03:15:41;65748.69;;;3.07;100.00
46614;BME280;32338;50.430;6.806;2022-11-22T03:18:12;65753.09;;;3.04;100.00
46614;BME280;32338;50.430;6.806;2022-11-22T03:20:43;65750.28;;;3.01;100.00
46614;BME280;32338;50.430;6.806;2022-11-22T03:23:10;65758.69;;;3.09;100.00
46614;BME280;32338;50.430;6.806;2022-11-22T03:25:39;65740.84;;;3.00;100.00
46614;BME280;32338;50.430;6.806;2022-11-22T03:28:10;65739.31;;;2.94;100.00
46614;BME280;32338;50.430;6.806;2022-11-22T03:30:39;65750.28;;;3.01;100.00
46614;BME280;32338;50.430;6.806;2022-11-22T03:33:09;65739.09;;;2.91;100.00
46614;BME280;32338;50.430;6.806;2022-11-22T03:35:35;65733.16;;;2.88;100.00
46614;BME280;32338;50.430;6.806;2022-11-22T03:38:02;65727.56;;;2.83;100.00
46614;BME280;32338;50.430;6.806;2022-11-22T03:40:30;65731.69;;;2.89;100.00
46614;BME280;32338;50.430;6.806;2022-11-22T03:42:58;65726.09;;;2.84;100.00
46614;BME280;32338;50.430;6.806;2022-11-22T03:45:28;65736.16;;;2.93;100.00
46614;BME280;32338;50.430;6.806;2022-11-22T03:47:58;65731.13;;;2.88;100.00
46614;BME280;32338;50.430;6.806;2022-11-22T03:50:25;65735.38;;;2.90;100.00
46614;BME280;32338;50.430;6.806;2022-11-22T03:52:51;65736.31;;;2.88;100.00
46614;BME280;32338;50.430;6.806;2022-11-22T03:55:18;65730.34;;;2.85;100.00
46614;BME280;32338;50.430;6.806;2022-11-22T03:57:50;65736.50;;;2.91;100.00
46614;BME280;32338;50.430;6.806;2022-11-22T04:00:17;65733.72;;;2.88;100.00
46614;BME280;32338;50.430;6.806;2022-11-22T04:02:46;65746.56;;;3.00;100.00
46614;BME280;32338;50.430;6.806;2022-11-22T04:05:17;65737.28;;;2.94;100.00
46614;BME280;32338;50.430;6.806;2022-11-22T04:07:47;65733.16;;;2.88;100.00
46614;BME280;32338;50.430;6.806;2022-11-22T04:10:16;65722.16;;;2.80;100.00
46614;BME280;32338;50.430;6.806;2022-11-22T04:12:45;65731.47;;;2.86;100.00
46614;BME280;32338;50.430;6.806;2022-11-22T04:15:12;65735.72;;;2.88;100.00
46614;BME280;32338;50.430;6.806;2022-11-22T04:17:39;65727.75;;;2.85;100.00
46614;BME280;32338;50.430;6.806;2022-11-22T04:20:12;65734.47;;;2.91;100.00
46614;BME280;32338;50.430;6.806;2022-11-22T04:22:57;65733.16;;;2.88;100.00
46614;BME280;32338;50.430;6.806;2022-11-22T04:25:25;65742.66;;;2.97;100.00
46614;BME280;32338;50.430;6.806;2022-11-22T04:27:51;65739.31;;;2.94;100.00
46614;BME280;32338;50.430;6.806;2022-11-22T04:30:18;65740.44;;;2.95;100.00
46614;BME280;32338;50.430;6.806;2022-11-22T04:32:44;65728.53;;;2.88;100.00
46614;BME280;32338;50.430;6.806;2022-11-22T04:35:12;65725.16;;;2.85;100.00
46614;BME280;32338;50.430;6.806;2022-11-22T04:37:39;65722.53;;;2.78;100.00
46614;BME280;32338;50.430;6.806;2022-11-22T04:40:07;65728.47;;;2.81;100.00
46614;BME280;32338;50.430;6.806;2022-11-22T04:42:36;65734.06;;;2.86;100.00
46614;BME280;32338;50.430;6.806;2022-11-22T04:45:32;65716.03;;;2.74;100.00
46614;BME280;32338;50.430;6.806;2022-11-22T04:47:59;65712.31;;;2.73;100.00
46614;BME280;32338;50.430;6.806;2022-11-22T04:50:27;65715.25;;;2.71;100.00
46614;BME280;32338;50.430;6.806;2022-11-22T04:53:12;65712.44;;;2.69;100.00
46614;BME280;32338;50.430;6.806;2022-11-22T04:55:39;65709.31;;;2.68;100.00
46614;BME280;32338;50.430;6.806;2022-11-22T04:58:09;65708.53;;;2.65;100.00
46614;BME280;32338;50.430;6.806;2022-11-22T05:00:36;65703.16;;;2.63;100.00
46614;BME280;32338;50.430;6.806;2022-11-22T05:03:04;65698.69;;;2.58;100.00
46614;BME280;32338;50.430;6.806;2022-11-22T05:05:33;65696.44;;;2.56;100.00
46614;BME280;32338;50.430;6.806;2022-11-22T05:08:01;65685.25;;;2.46;100.00
46614;BME280;32338;50.430;6.806;2022-11-22T05:10:28;65687.84;;;2.46;100.00
46614;BME280;32338;50.430;6.806;2022-11-22T05:13:15;65698.25;;;2.53;100.00
46614;BME280;32338;50.430;6.806;2022-11-22T05:15:42;65697.34;;;2.55;100.00
46614;BME280;32338;50.430;6.806;2022-11-22T05:18:08;65700.91;;;2.61;100.00
46614;BME280;32338;50.430;6.806;2022-11-22T05:20:36;65694.75;;;2.55;100.00
46614;BME280;32338;50.430;6.806;2022-11-22T05:23:03;65699.03;;;2.56;100.00
46614;BME280;32338;50.430;6.806;2022-11-22T05:25:48;65698.13;;;2.58;100.00
46614;BME280;32338;50.430;6.806;2022-11-22T05:51:48;65713.91;;;2.68;100.00
46614;BME280;32338;50.430;6.806;2022-11-22T05:54:15;65701.25;;;2.58;100.00
46614;BME280;32338;50.430;6.806;2022-11-22T05:56:41;65697.56;;;2.57;100.00
46614;BME280;32338;50.430;6.806;2022-11-22T05:59:08;65694.22;;;2.54;100.00
46614;BME280;32338;50.430;6.806;2022-11-22T06:01:35;65693.44;;;2.51;100.00
46614;BME280;32338;50.430;6.806;2022-11-22T06:04:02;65689.16;;;2.50;100.00
46614;BME280;32338;50.430;6.806;2022-11-22T06:06:28;65690.84;;;2.51;100.00
46614;BME280;32338;50.430;6.806;2022-11-22T06:08:57;65693.28;;;2.56;100.00
46614;BME280;32338;50.430;6.806;2022-11-22T06:11:25;65702.38;;;2.59;100.00
46614;BME280;32338;50.430;6.806;2022-11-22T06:13:54;65696.44;;;2.56;100.00
46614;BME280;32338;50.430;6.806;2022-11-22T06:16:21;65705.72;;;2.63;100.00
46614;BME280;32338;50.430;6.806;2022-11-22T06:18:48;65700.91;;;2.61;100.00
46614;BME280;32338;50.430;6.806;2022-11-22T06:21:16;65693.63;;;2.54;100.00
46614;BME280;32338;50.430;6.806;2022-11-22T06:23:44;65693.84;;;2.56;100.00
46614;BME280;32338;50.430;6.806;2022-11-22T06:26:14;65699.22;;;2.59;100.00
46614;BME280;32338;50.430;6.806;2022-11-22T06:28:42;65712.81;;;2.67;100.00
46614;BME280;32338;50.430;6.806;2022-11-22T06:31:11;65696.44;;;2.56;100.00
46614;BME280;32338;50.430;6.806;2022-11-22T06:33:38;65701.81;;;2.59;100.00
46614;BME280;32338;50.430;6.806;2022-11-22T06:36:07;65698.06;;;2.51;100.00
46614;BME280;32338;50.430;6.806;2022-11-22T06:38:34;65697.47;;;2.50;100.00
46614;BME280;32338;50.430;6.806;2022-11-22T06:41:01;65683.22;;;2.47;100.00
46614;BME280;32338;50.430;6.806;2022-11-22T06:43:30;65699.22;;;2.59;100.00
46614;BME280;32338;50.430;6.806;2022-11-22T06:45:58;65691.97;;;2.52;100.00
46614;BME280;32338;50.430;6.806;2022-11-22T06:48:28;65690.84;;;2.51;100.00
46614;BME280;32338;50.430;6.806;2022-11-22T06:50:57;65687.50;;;2.48;100.00
46614;BME280;32338;50.430;6.806;2022-11-22T06:53:25;65687.50;;;2.48;100.00
46614;BME280;32338;50.430;6.806;2022-11-22T06:55:58;65696.22;;;2.54;100.00
46614;BME280;32338;50.430;6.806;2022-11-22T06:58:25;65685.25;;;2.46;100.00
46614;BME280;32338;50.430;6.806;2022-11-22T07:00:58;65679.09;;;2.40;100.00
46614;BME280;32338;50.430;6.806;2022-11-22T07:03:25;65668.47;;;2.31;100.00
46614;BME280;32338;50.430;6.806;2022-11-22T07:05:53;65663.44;;;2.26;100.00
46614;BME280;32338;50.430;6.806;2022-11-22T07:08:20;65658.97;;;2.22;100.00
46614;BME280;32338;50.430;6.806;2022-11-22T07:10:47;65660.31;;;2.25;100.00
46614;BME280;32338;50.430;6.806;2022-11-22T07:13:13;65660.66;;;2.23;100.00
46614;BME280;32338;50.430;6.806;2022-11-22T07:15:40;65658.19;;;2.19;100.00
46614;BME280;32338;50.430;6.806;2022-11-22T07:18:08;65658.19;;;2.19;100.00
46614;BME280;32338;50.430;6.806;2022-11-22T07:20:35;65659.88;;;2.20;100.00
46614;BME280;32338;50.430;6.806;2022-11-22T07:23:01;65658.75;;;2.19;100.00
46614;BME280;32338;50.430;6.806;2022-11-22T07:25:28;65658.06;;;2.23;100.00
46614;BME280;32338;50.430;6.806;2022-11-22T07:27:55;65673.09;;;2.30;100.00
46614;BME280;32338;50.430;6.806;2022-11-22T07:30:21;65658.75;;;2.19;100.00
46614;BME280;32338;50.430;6.806;2022-11-22T07:32:48;65660.09;;;2.23;100.00
46614;BME280;32338;50.430;6.806;2022-11-22T07:35:16;65657.28;;;2.20;100.00
46614;BME280;32338;50.430;6.806;2022-11-22T07:37:42;65655.06;;;2.18;100.00
46614;BME280;32338;50.430;6.806;2022-11-22T07:40:10;65665.13;;;2.27;100.00
46614;BME280;32338;50.430;6.806;2022-11-22T07:42:37;65658.41;;;2.21;100.00
46614;BME280;32338;50.430;6.806;2022-11-22T07:45:04;65667.34;;;2.30;100.00
46614;BME280;32338;50.430;6.806;2022-11-22T07:47:31;65667.69;;;2.27;100.00
46614;BME280;32338;50.430;6.806;2022-11-22T07:49:57;65668.13;;;2.33;100.00
46614;BME280;32338;50.430;6.806;2022-11-22T07:52:25;65662.31;;;2.25;100.00
46614;BME280;32338;50.430;6.806;2022-11-22T07:54:52;65669.94;;;2.30;100.00
46614;BME280;32338;50.430;6.806;2022-11-22T07:57:19;65672.53;;;2.30;100.00
46614;BME280;32338;50.430;6.806;2022-11-22T07:59:45;65667.34;;;2.30;100.00
46614;BME280;32338;50.430;6.806;2022-11-22T08:02:12;65669.03;;;2.31;100.00
46614;BME280;32338;50.430;6.806;2022-11-22T08:04:39;65668.13;;;2.33;100.00
46614;BME280;32338;50.430;6.806;2022-11-22T08:07:06;65675.53;;;2.35;100.00
46614;BME280;32338;50.430;6.806;2022-11-22T08:09:35;65658.13;;;2.31;100.00
46614;BME280;32338;50.430;6.806;2022-11-22T08:12:01;65673.16;;;2.37;100.00
46614;BME280;32338;50.430;6.806;2022-11-22T08:14:28;65678.53;;;2.40;100.00
46614;BME280;32338;50.430;6.806;2022-11-22T08:16:55;65683.56;;;2.45;100.00
46614;BME280;32338;50.430;6.806;2022-11-22T08:19:21;65685.59;;;2.44;100.00
46614;BME280;32338;50.430;6.806;2022-11-22T08:21:48;65688.03;;;2.49;100.00
46614;BME280;32338;50.430;6.806;2022-11-22T08:24:15;65695.31;;;2.55;100.00
46614;BME280;32338;50.430;6.806;2022-11-22T08:26:43;65691.97;;;2.52;100.00
46614;BME280;32338;50.430;6.806;2022-11-22T08:29:11;65690.63;;;2.49;100.00
46614;BME280;32338;50.430;6.806;2022-11-22T08:31:38;65695.31;;;2.55;100.00
46614;BME280;32338;50.430;6.806;2022-11-22T08:34:05;65688.03;;;2.49;100.00
46614;BME280;32338;50.430;6.806;2022-11-22T08:36:32;65696.44;;;2.56;100.00
46614;BME280;32338;50.430;6.806;2022-11-22T08:38:58;65698.69;;;2.58;100.00
46614;BME280;32338;50.430;6.806;2022-11-22T08:41:25;65703.50;;;2.61;100.00
46614;BME280;32338;50.430;6.806;2022-11-22T08:43:53;65697.56;;;2.57;100.00
46614;BME280;32338;50.430;6.806;2022-11-22T08:46:20;65712.25;;;2.66;100.00
46614;BME280;32338;50.430;6.806;2022-11-22T08:48:47;65702.38;;;2.59;100.00
46614;BME280;32338;50.430;6.806;2022-11-22T08:51:13;65710.44;;;2.69;100.00
46614;BME280;32338;50.430;6.806;2022-11-22T08:53:42;65708.75;;;2.68;100.00
46614;BME280;32338;50.430;6.806;2022-11-22T08:56:10;65715.44;;;2.74;100.00
46614;BME280;32338;50.430;6.806;2022-11-22T08:58:37;65724.75;;;2.80;100.00
46614;BME280;32338;50.430;6.806;2022-11-22T09:01:07;65708.59;;;2.72;100.00
46614;BME280;32338;50.430;6.806;2022-11-22T09:03:34;65713.22;;;2.72;100.00
46614;BME280;32338;50.430;6.806;2022-11-22T09:06:01;65725.88;;;2.81;100.00
46614;BME280;32338;50.430;6.806;2022-11-22T09:08:28;65719.56;;;2.80;100.00
46614;BME280;32338;50.430;6.806;2022-11-22T09:10:58;65728.66;;;2.84;100.00
46614;BME280;32338;50.430;6.806;2022-11-22T09:13:27;65719.22;;;2.82;100.00
46614;BME280;32338;50.430;6.806;2022-11-22T09:15:54;65720.69;;;2.81;100.00
46614;BME280;32338;50.430;6.806;2022-11-22T09:18:22;65736.50;;;2.91;100.00
46614;BME280;32338;50.430;6.806;2022-11-22T09:20:56;65724.00;;;2.77;100.00
46614;BME280;32338;50.430;6.806;2022-11-22T09:23:23;65716.56;;;2.75;100.00
46614;BME280;32338;50.430;6.806;2022-11-22T09:25:55;65713.56;;;2.70;100.00
46614;BME280;32338;50.430;6.806;2022-11-22T09:28:23;65720.84;;;2.76;100.00
46614;BME280;32338;50.430;6.806;2022-11-22T09:30:49;65729.44;;;2.87;100.00
46614;BME280;32338;50.430;6.806;2022-11-22T09:33:16;65725.53;;;2.83;100.00
46614;BME280;32338;50.430;6.806;2022-11-22T09:35:44;65734.69;;;2.94;100.00
46614;BME280;32338;50.430;6.806;2022-11-22T09:38:11;65724.81;;;2.87;100.00
46614;BME280;32338;50.430;6.806;2022-11-22T09:40:38;65729.88;;;2.92;100.00
46614;BME280;32338;50.430;6.806;2022-11-22T09:43:11;65737.44;;;2.89;100.00
46614;BME280;32338;50.430;6.806;2022-11-22T09:48:41;65736.16;;;2.93;100.00
46614;BME280;32338;50.430;6.806;2022-11-22T09:51:15;65740.28;;;2.99;100.00
46614;BME280;32338;50.430;6.806;2022-11-22T09:53:45;65736.38;;;2.96;100.00
46614;BME280;32338;50.430;6.806;2022-11-22T09:56:15;65740.78;;;2.92;100.00
46614;BME280;32338;50.430;6.806;2022-11-22T09:58:46;65744.56;;;3.01;100.00
46614;BME280;32338;50.430;6.806;2022-11-22T10:01:18;65749.38;;;3.03;100.00
46614;BME280;32338;50.430;6.806;2022-11-22T10:03:51;65753.28;;;3.06;100.00
46614;BME280;32338;50.430;6.806;2022-11-22T10:06:23;65755.00;;;3.08;100.00
46614;BME280;32338;50.430;6.806;2022-11-22T10:09:03;65758.69;;;3.09;100.00
46614;BME280;32338;50.430;6.806;2022-11-22T10:11:37;65760.44;;;3.18;100.00
46614;BME280;32338;50.430;6.806;2022-11-22T10:14:13;65759.66;;;3.15;100.00
46614;BME280;32338;50.430;6.806;2022-11-22T10:16:52;65770.31;;;3.24;100.00
46614;BME280;32338;50.430;6.806;2022-11-22T10:19:23;65759.31;;;3.17;100.00
46614;BME280;32338;50.430;6.806;2022-11-22T10:21:52;65760.22;;;3.15;100.00
46614;BME280;32338;50.430;6.806;2022-11-22T10:24:19;65773.66;;;3.28;100.00
46614;BME280;32338;50.430;6.806;2022-11-22T10:26:46;65774.78;;;3.29;100.00
46614;BME280;32338;50.430;6.806;2022-11-22T10:29:27;65772.91;;;3.24;100.00
46614;BME280;32338;50.430;6.806;2022-11-22T10:32:02;65786.53;;;3.39;100.00
46614;BME280;32338;50.430;6.806;2022-11-22T10:34:50;65775.31;;;3.29;100.00
46614;BME280;32338;50.430;6.806;2022-11-22T10:37:26;65766.03;;;3.23;100.00
46614;BME280;32338;50.430;6.806;2022-11-22T10:40:03;65764.13;;;3.19;100.00
46614;BME280;32338;50.430;6.806;2022-11-22T10:42:49;65764.72;;;3.19;100.00
46614;BME280;32338;50.430;6.806;2022-11-22T10:45:23;65771.19;;;3.23;100.00
46614;BME280;32338;50.430;6.806;2022-11-22T10:47:59;65791.16;;;3.39;100.00
46614;BME280;32338;50.430;6.806;2022-11-22T10:50:35;65779.44;;;3.35;100.00
46614;BME280;32338;50.430;6.806;2022-11-22T10:53:20;65787.09;;;3.40;100.00
46614;BME280;32338;50.430;6.806;2022-11-22T10:55:56;65796.41;;;3.46;100.00
46614;BME280;32338;50.430;6.806;2022-11-22T10:58:33;65793.25;;;3.46;100.00
46614;BME280;32338;50.430;6.806;2022-11-22T11:01:06;65798.66;;;3.48;100.00
46614;BME280;32338;50.430;6.806;2022-11-22T11:03:38;65797.72;;;3.50;100.00
46614;BME280;32338;50.430;6.806;2022-11-22T11:06:12;65793.81;;;3.46;100.00
46614;BME280;32338;50.430;6.806;2022-11-22T11:08:44;65795.69;;;3.50;100.00
46614;BME280;32338;50.430;6.806;2022-11-22T11:11:12;65811.50;;;3.60;100.00
46614;BME280;32338;50.430;6.806;2022-11-22T11:13:43;65817.88;;;3.68;100.00
46614;BME280;32338;50.430;6.806;2022-11-22T11:16:14;65821.25;;;3.71;100.00
46614;BME280;32338;50.430;6.806;2022-11-22T11:18:47;65825.72;;;3.76;100.00
46614;BME280;32338;50.430;6.806;2022-11-22T11:21:15;65835.25;;;3.84;100.00
46614;BME280;32338;50.430;6.806;2022-11-22T11:23:43;65841.19;;;3.87;100.00
46614;BME280;32338;50.430;6.806;2022-11-22T11:26:19;65837.34;;;3.91;100.00
46614;BME280;32338;50.430;6.806;2022-11-22T11:28:47;65836.56;;;3.88;100.00
46614;BME280;32338;50.430;6.806;2022-11-22T11:31:14;65834.53;;;3.88;100.00
46614;BME280;32338;50.430;6.806;2022-11-22T11:33:43;65846.09;;;3.97;100.00
46614;BME280;32338;50.430;6.806;2022-11-22T11:36:13;65863.81;;;4.11;100.00
46614;BME280;32338;50.430;6.806;2022-11-22T11:38:51;65871.81;;;4.13;100.00
46614;BME280;32338;50.430;6.806;2022-11-22T11:41:21;65864.91;;;4.12;100.00
46614;BME280;32338;50.430;6.806;2022-11-22T11:43:49;65858.56;;;4.03;100.00
46614;BME280;32338;50.430;6.806;2022-11-22T11:46:18;65851.84;;;3.97;100.00
46614;BME280;32338;50.430;6.806;2022-11-22T11:48:46;65845.31;;;3.94;100.00
46614;BME280;32338;50.430;6.806;2022-11-22T11:51:16;65841.41;;;3.90;100.00
46614;BME280;32338;50.430;6.806;2022-11-22T11:53:53;65839.34;;;3.90;100.00
46614;BME280;32338;50.430;6.806;2022-11-22T11:56:31;65844.19;;;3.93;100.00
46614;BME280;32338;50.430;6.806;2022-11-22T11:59:04;65840.66;;;3.87;100.00
46614;BME280;32338;50.430;6.806;2022-11-22T12:01:33;65842.53;;;3.91;100.00
46614;BME280;32338;50.430;6.806;2022-11-22T12:04:02;65839.53;;;3.86;100.00
46614;BME280;32338;50.430;6.806;2022-11-22T12:06:31;65829.09;;;3.79;100.00
46614;BME280;32338;50.430;6.806;2022-11-22T12:09:00;65827.97;;;3.78;100.00
46614;BME280;32338;50.430;6.806;2022-11-22T12:11:36;65824.03;;;3.74;100.00
46614;BME280;32338;50.430;6.806;2022-11-22T12:14:05;65832.22;;;3.79;100.00
46614;BME280;32338;50.430;6.806;2022-11-22T12:16:39;65852.81;;;4.03;100.00
46614;BME280;32338;50.430;6.806;2022-11-22T12:19:16;65853.16;;;4.01;100.00
46614;BME280;32338;50.430;6.806;2022-11-22T12:21:53;65869.00;;;4.11;100.00
46614;BME280;32338;50.430;6.806;2022-11-22T12:24:27;65856.53;;;4.04;100.00
46614;BME280;32338;50.430;6.806;2022-11-22T12:26:58;65853.50;;;3.99;100.00
46614;BME280;32338;50.430;6.806;2022-11-22T12:29:25;65854.28;;;4.02;100.00
46614;BME280;32338;50.430;6.806;2022-11-22T12:31:55;65857.22;;;4.00;100.00
46614;BME280;32338;50.430;6.806;2022-11-22T12:34:26;65843.66;;;3.92;100.00
46614;BME280;32338;50.430;6.806;2022-11-22T12:36:59;65847.38;;;3.93;100.00
46614;BME280;32338;50.430;6.806;2022-11-22T12:39:32;65848.13;;;3.96;100.00
46614;BME280;32338;50.430;6.806;2022-11-22T12:42:08;65838.59;;;3.87;100.00
46614;BME280;32338;50.430;6.806;2022-11-22T12:44:38;65840.84;;;3.89;100.00
46614;BME280;32338;50.430;6.806;2022-11-22T12:47:09;65842.53;;;3.91;100.00
46614;BME280;32338;50.430;6.806;2022-11-22T12:49:42;65845.13;;;3.91;100.00
46614;BME280;32338;50.430;6.806;2022-11-22T12:52:15;65834.34;;;3.86;100.00
46614;BME280;32338;50.430;6.806;2022-11-22T12:54:55;65822.72;;;3.70;100.00
46614;BME280;32338;50.430;6.806;2022-11-22T12:57:30;65817.31;;;3.68;100.00
46614;BME280;32338;50.430;6.806;2022-11-22T13:00:04;65820.91;;;3.73;100.00
46614;BME280;32338;50.430;6.806;2022-11-22T13:02:35;65822.16;;;3.70;100.00
46614;BME280;32338;50.430;6.806;2022-11-22T13:05:09;65820.31;;;3.73;100.00
46614;BME280;32338;50.430;6.806;2022-11-22T13:07:48;65821.44;;;3.74;100.00
46614;BME280;32338;50.430;6.806;2022-11-22T13:10:27;65834.13;;;3.83;100.00
46614;BME280;32338;50.430;6.806;2022-11-22T13:12:57;65826.28;;;3.76;100.00
46614;BME280;32338;50.430;6.806;2022-11-22T13:15:28;65830.75;;;3.80;100.00
46614;BME280;32338;50.430;6.806;2022-11-22T13:17:55;65831.88;;;3.81;100.00
46614;BME280;32338;50.430;6.806;2022-11-22T13:20:24;65830.56;;;3.78;100.00
46614;BME280;32338;50.430;6.806;2022-11-22T13:23:04;65837.13;;;3.88;100.00
46614;BME280;32338;50.430;6.806;2022-11-22T13:25:46;65832.66;;;3.84;100.00
46614;BME280;32338;50.430;6.806;2022-11-22T13:28:21;65826.28;;;3.76;100.00
46614;BME280;32338;50.430;6.806;2022-11-22T13:31:06;65827.41;;;3.77;100.00
46614;BME280;32338;50.430;6.806;2022-11-22T13:33:39;65814.53;;;3.65;100.00
46614;BME280;32338;50.430;6.806;2022-11-22T13:39:15;65833.56;;;3.83;100.00
46614;BME280;32338;50.430;6.806;2022-11-22T13:41:51;65850.16;;;3.96;100.00
46614;BME280;32338;50.430;6.806;2022-11-22T13:44:32;65834.69;;;3.84;100.00
46614;BME280;32338;50.430;6.806;2022-11-22T13:47:00;65839.72;;;3.88;100.00
46614;BME280;32338;50.430;6.806;2022-11-22T13:49:34;65827.63;;;3.80;100.00